sensor_id;sensor_type;location;lat;lon;timestamp;temperature;humidity
5009;DHT22;2523;51.058;6.922;2023-04-01T00:00:34;10.60;1.00
5009;DHT22;2523;51.058;6.922;2023-04-01T00:02:59;10.60;1.00
5009;DHT22;2523;51.058;6.922;2023-04-01T00:05:26;10.60;1.00
5009;DHT22;2523;51.058;6.922;2023-04-01T00:07:51;10.60;1.00
5009;DHT22;2523;51.058;6.922;2023-04-01T00:10:17;10.60;1.00
5009;DHT22;2523;51.058;6.922;2023-04-01T00:12:43;10.60;1.00
5009;DHT22;2523;51.058;6.922;2023-04-01T00:15:11;10.60;1.00
5009;DHT22;2523;51.058;6.922;2023-04-01T00:17:37;10.60;1.00
5009;DHT22;2523;51.058;6.922;2023-04-01T00:20:04;10.70;1.00
5009;DHT22;2523;51.058;6.922;2023-04-01T00:22:30;10.60;1.00
5009;DHT22;2523;51.058;6.922;2023-04-01T00:24:55;10.70;1.00
5009;DHT22;2523;51.058;6.922;2023-04-01T00:27:21;10.70;1.00
5009;DHT22;2523;51.058;6.922;2023-04-01T00:29:47;10.60;1.00
5009;DHT22;2523;51.058;6.922;2023-04-01T00:32:14;10.70;1.00
5009;DHT22;2523;51.058;6.922;2023-04-01T00:34:39;10.70;1.00
5009;DHT22;2523;51.058;6.922;2023-04-01T00:37:06;10.70;1.00
5009;DHT22;2523;51.058;6.922;2023-04-01T00:39:32;10.70;1.00
5009;DHT22;2523;51.058;6.922;2023-04-01T00:41:59;10.70;1.00
5009;DHT22;2523;51.058;6.922;2023-04-01T00:44:28;10.60;1.00
5009;DHT22;2523;51.058;6.922;2023-04-01T00:46:55;10.70;1.00
5009;DHT22;2523;51.058;6.922;2023-04-01T00:49:25;10.60;1.00
5009;DHT22;2523;51.058;6.922;2023-04-01T00:51:54;10.60;1.00
5009;DHT22;2523;51.058;6.922;2023-04-01T00:54:22;10.60;1.00
5009;DHT22;2523;51.058;6.922;2023-04-01T00:57:03;10.70;1.00
5009;DHT22;2523;51.058;6.922;2023-04-01T00:59:35;10.60;1.00
5009;DHT22;2523;51.058;6.922;2023-04-01T01:02:05;10.60;1.00
5009;DHT22;2523;51.058;6.922;2023-04-01T01:04:33;10.60;1.00
5009;DHT22;2523;51.058;6.922;2023-04-01T01:07:48;10.60;1.00
5009;DHT22;2523;51.058;6.922;2023-04-01T01:29:01;10.50;1.00
5009;DHT22;2523;51.058;6.922;2023-04-01T01:34:36;10.50;1.00
5009;DHT22;2523;51.058;6.922;2023-04-01T01:37:10;10.50;1.00
5009;DHT22;2523;51.058;6.922;2023-04-01T01:39:37;10.50;1.00
5009;DHT22;2523;51.058;6.922;2023-04-01T01:42:07;10.50;1.00
5009;DHT22;2523;51.058;6.922;2023-04-01T01:44:35;10.50;24.30
5009;DHT22;2523;51.058;6.922;2023-04-01T01:47:01;10.50;1.00
5009;DHT22;2523;51.058;6.922;2023-04-01T01:49:28;10.50;1.00
5009;DHT22;2523;51.058;6.922;2023-04-01T01:51:56;10.50;1.00
5009;DHT22;2523;51.058;6.922;2023-04-01T01:54:21;10.50;99.90
5009;DHT22;2523;51.058;6.922;2023-04-01T01:56:51;10.40;99.90
5009;DHT22;2523;51.058;6.922;2023-04-01T01:59:19;10.40;1.00
5009;DHT22;2523;51.058;6.922;2023-04-01T02:01:49;10.30;1.00
5009;DHT22;2523;51.058;6.922;2023-04-01T02:04:17;10.30;1.00
5009;DHT22;2523;51.058;6.922;2023-04-01T02:06:53;10.30;99.90
5009;DHT22;2523;51.058;6.922;2023-04-01T02:09:21;10.20;99.90
5009;DHT22;2523;51.058;6.922;2023-04-01T02:11:57;10.20;1.00
5009;DHT22;2523;51.058;6.922;2023-04-01T02:14:41;10.20;1.00
5009;DHT22;2523;51.058;6.922;2023-04-01T02:17:22;10.10;99.90
5009;DHT22;2523;51.058;6.922;2023-04-01T02:20:01;10.10;1.00
5009;DHT22;2523;51.058;6.922;2023-04-01T02:22:36;10.00;1.00
5009;DHT22;2523;51.058;6.922;2023-04-01T02:25:05;10.00;1.00
5009;DHT22;2523;51.058;6.922;2023-04-01T02:27:32;10.00;99.90
5009;DHT22;2523;51.058;6.922;2023-04-01T02:29:57;10.00;99.90
5009;DHT22;2523;51.058;6.922;2023-04-01T02:32:24;9.90;1.00
5009;DHT22;2523;51.058;6.922;2023-04-01T02:34:51;9.90;99.90
5009;DHT22;2523;51.058;6.922;2023-04-01T02:37:17;9.90;1.00
5009;DHT22;2523;51.058;6.922;2023-04-01T02:39:42;9.80;1.00
5009;DHT22;2523;51.058;6.922;2023-04-01T02:42:08;9.80;1.00
5009;DHT22;2523;51.058;6.922;2023-04-01T02:44:34;9.80;99.90
5009;DHT22;2523;51.058;6.922;2023-04-01T02:47:00;9.70;99.90
5009;DHT22;2523;51.058;6.922;2023-04-01T02:49:26;9.80;1.00
5009;DHT22;2523;51.058;6.922;2023-04-01T02:51:51;9.80;1.00
5009;DHT22;2523;51.058;6.922;2023-04-01T02:54:18;9.70;1.00
5009;DHT22;2523;51.058;6.922;2023-04-01T02:56:43;9.80;1.00
5009;DHT22;2523;51.058;6.922;2023-04-01T02:59:09;9.80;1.00
5009;DHT22;2523;51.058;6.922;2023-04-01T03:01:35;9.80;99.90
5009;DHT22;2523;51.058;6.922;2023-04-01T03:04:00;9.80;99.90
5009;DHT22;2523;51.058;6.922;2023-04-01T03:06:26;9.80;1.00
5009;DHT22;2523;51.058;6.922;2023-04-01T03:08:52;9.80;1.00
5009;DHT22;2523;51.058;6.922;2023-04-01T03:11:17;9.70;1.00
5009;DHT22;2523;51.058;6.922;2023-04-01T03:13:43;9.70;1.00
5009;DHT22;2523;51.058;6.922;2023-04-01T03:16:08;9.80;1.00
5009;DHT22;2523;51.058;6.922;2023-04-01T03:18:34;9.80;1.00
5009;DHT22;2523;51.058;6.922;2023-04-01T03:21:17;9.80;1.00
5009;DHT22;2523;51.058;6.922;2023-04-01T03:23:43;9.80;75.00
5009;DHT22;2523;51.058;6.922;2023-04-01T03:26:08;9.80;1.00
5009;DHT22;2523;51.058;6.922;2023-04-01T03:28:34;9.80;1.00
5009;DHT22;2523;51.058;6.922;2023-04-01T03:30:59;9.80;1.00
5009;DHT22;2523;51.058;6.922;2023-04-01T03:33:25;9.80;69.70
5009;DHT22;2523;51.058;6.922;2023-04-01T03:35:50;9.90;1.00
5009;DHT22;2523;51.058;6.922;2023-04-01T03:38:17;9.80;47.50
5009;DHT22;2523;51.058;6.922;2023-04-01T03:40:43;9.90;99.90
5009;DHT22;2523;51.058;6.922;2023-04-01T03:43:09;9.90;99.90
5009;DHT22;2523;51.058;6.922;2023-04-01T03:45:35;9.90;1.00
5009;DHT22;2523;51.058;6.922;2023-04-01T03:48:01;9.90;1.00
5009;DHT22;2523;51.058;6.922;2023-04-01T03:50:26;9.90;99.90
5009;DHT22;2523;51.058;6.922;2023-04-01T03:52:52;9.90;1.00
5009;DHT22;2523;51.058;6.922;2023-04-01T03:55:17;9.90;99.90
5009;DHT22;2523;51.058;6.922;2023-04-01T03:57:43;9.90;1.00
5009;DHT22;2523;51.058;6.922;2023-04-01T04:00:09;9.80;99.90
5009;DHT22;2523;51.058;6.922;2023-04-01T04:02:35;9.80;99.90
5009;DHT22;2523;51.058;6.922;2023-04-01T04:05:01;9.80;99.90
5009;DHT22;2523;51.058;6.922;2023-04-01T04:07:27;9.80;99.90
5009;DHT22;2523;51.058;6.922;2023-04-01T04:09:52;9.80;99.90
5009;DHT22;2523;51.058;6.922;2023-04-01T04:12:18;9.80;99.90
5009;DHT22;2523;51.058;6.922;2023-04-01T04:14:43;9.80;99.90
5009;DHT22;2523;51.058;6.922;2023-04-01T04:17:12;9.70;99.90
5009;DHT22;2523;51.058;6.922;2023-04-01T04:19:42;9.70;99.90
5009;DHT22;2523;51.058;6.922;2023-04-01T04:22:07;9.70;99.90
5009;DHT22;2523;51.058;6.922;2023-04-01T04:24:34;9.70;99.90
5009;DHT22;2523;51.058;6.922;2023-04-01T04:27:00;9.80;99.90
5009;DHT22;2523;51.058;6.922;2023-04-01T04:29:26;9.70;99.90
5009;DHT22;2523;51.058;6.922;2023-04-01T04:31:51;9.70;99.90
5009;DHT22;2523;51.058;6.922;2023-04-01T04:34:17;9.70;99.90
5009;DHT22;2523;51.058;6.922;2023-04-01T04:36:44;9.70;99.90
5009;DHT22;2523;51.058;6.922;2023-04-01T04:39:10;9.70;99.90
5009;DHT22;2523;51.058;6.922;2023-04-01T04:41:37;9.70;99.90
5009;DHT22;2523;51.058;6.922;2023-04-01T04:44:03;9.70;99.90
5009;DHT22;2523;51.058;6.922;2023-04-01T04:46:29;9.70;99.90
5009;DHT22;2523;51.058;6.922;2023-04-01T04:48:54;9.70;99.90
5009;DHT22;2523;51.058;6.922;2023-04-01T04:51:21;9.70;99.90
5009;DHT22;2523;51.058;6.922;2023-04-01T04:53:47;9.70;99.90
5009;DHT22;2523;51.058;6.922;2023-04-01T04:56:12;9.70;99.90
5009;DHT22;2523;51.058;6.922;2023-04-01T04:58:39;9.70;99.90
5009;DHT22;2523;51.058;6.922;2023-04-01T05:01:07;9.70;99.90
5009;DHT22;2523;51.058;6.922;2023-04-01T05:03:32;9.70;99.90
5009;DHT22;2523;51.058;6.922;2023-04-01T05:05:58;9.70;99.90
5009;DHT22;2523;51.058;6.922;2023-04-01T05:08:23;9.70;99.90
5009;DHT22;2523;51.058;6.922;2023-04-01T05:10:49;9.60;99.90
5009;DHT22;2523;51.058;6.922;2023-04-01T05:13:14;9.70;99.90
5009;DHT22;2523;51.058;6.922;2023-04-01T05:15:40;9.70;99.90
5009;DHT22;2523;51.058;6.922;2023-04-01T05:18:06;9.70;99.90
5009;DHT22;2523;51.058;6.922;2023-04-01T05:20:31;9.70;99.90
5009;DHT22;2523;51.058;6.922;2023-04-01T05:22:58;9.60;99.90
5009;DHT22;2523;51.058;6.922;2023-04-01T05:25:23;9.60;99.90
5009;DHT22;2523;51.058;6.922;2023-04-01T05:27:49;9.60;99.90
5009;DHT22;2523;51.058;6.922;2023-04-01T05:30:15;9.70;99.90
5009;DHT22;2523;51.058;6.922;2023-04-01T05:32:40;9.60;99.90
5009;DHT22;2523;51.058;6.922;2023-04-01T05:35:06;9.60;99.90
5009;DHT22;2523;51.058;6.922;2023-04-01T05:37:34;9.70;99.90
5009;DHT22;2523;51.058;6.922;2023-04-01T05:40:00;9.60;99.90
5009;DHT22;2523;51.058;6.922;2023-04-01T05:42:25;9.70;99.90
5009;DHT22;2523;51.058;6.922;2023-04-01T05:44:51;9.60;99.90
5009;DHT22;2523;51.058;6.922;2023-04-01T05:47:16;9.60;99.90
5009;DHT22;2523;51.058;6.922;2023-04-01T05:49:42;9.70;99.90
5009;DHT22;2523;51.058;6.922;2023-04-01T05:52:07;9.60;99.90
5009;DHT22;2523;51.058;6.922;2023-04-01T05:54:33;9.70;99.90
5009;DHT22;2523;51.058;6.922;2023-04-01T05:56:59;9.60;99.90
5009;DHT22;2523;51.058;6.922;2023-04-01T05:59:24;9.60;99.90
5009;DHT22;2523;51.058;6.922;2023-04-01T06:01:50;9.70;99.90
5009;DHT22;2523;51.058;6.922;2023-04-01T06:04:17;9.70;99.90
5009;DHT22;2523;51.058;6.922;2023-04-01T06:06:43;9.70;99.90
5009;DHT22;2523;51.058;6.922;2023-04-01T06:09:17;9.60;99.90
5009;DHT22;2523;51.058;6.922;2023-04-01T06:12:08;9.60;99.90
5009;DHT22;2523;51.058;6.922;2023-04-01T06:14:50;9.70;99.90
5009;DHT22;2523;51.058;6.922;2023-04-01T06:30:47;9.80;99.90
5009;DHT22;2523;51.058;6.922;2023-04-01T06:38:49;9.80;99.90
5009;DHT22;2523;51.058;6.922;2023-04-01T06:41:54;9.80;99.90
5009;DHT22;2523;51.058;6.922;2023-04-01T06:47:23;9.80;99.90
5009;DHT22;2523;51.058;6.922;2023-04-01T06:53:16;9.90;99.90
5009;DHT22;2523;51.058;6.922;2023-04-01T06:55:46;9.90;99.90
5009;DHT22;2523;51.058;6.922;2023-04-01T06:58:37;10.00;99.90
5009;DHT22;2523;51.058;6.922;2023-04-01T07:01:08;9.90;99.90
5009;DHT22;2523;51.058;6.922;2023-04-01T07:03:45;10.00;99.90
5009;DHT22;2523;51.058;6.922;2023-04-01T07:06:23;10.00;99.90
5009;DHT22;2523;51.058;6.922;2023-04-01T07:08:52;10.00;99.90
5009;DHT22;2523;51.058;6.922;2023-04-01T07:11:30;10.00;99.90
5009;DHT22;2523;51.058;6.922;2023-04-01T07:14:22;9.90;99.90
5009;DHT22;2523;51.058;6.922;2023-04-01T07:16:53;9.90;99.90
5009;DHT22;2523;51.058;6.922;2023-04-01T07:19:24;9.90;99.90
5009;DHT22;2523;51.058;6.922;2023-04-01T07:21:56;9.90;99.90
5009;DHT22;2523;51.058;6.922;2023-04-01T07:24:25;9.90;99.90
5009;DHT22;2523;51.058;6.922;2023-04-01T07:26:54;9.90;99.90
5009;DHT22;2523;51.058;6.922;2023-04-01T07:29:21;9.90;99.90
5009;DHT22;2523;51.058;6.922;2023-04-01T07:34:23;9.90;99.90
5009;DHT22;2523;51.058;6.922;2023-04-01T07:37:05;9.90;99.90
5009;DHT22;2523;51.058;6.922;2023-04-01T07:51:10;9.90;99.90
5009;DHT22;2523;51.058;6.922;2023-04-01T07:53:46;10.00;99.90
5009;DHT22;2523;51.058;6.922;2023-04-01T07:56:19;10.00;99.90
5009;DHT22;2523;51.058;6.922;2023-04-01T08:04:51;10.00;99.90
5009;DHT22;2523;51.058;6.922;2023-04-01T08:07:43;10.00;99.90
5009;DHT22;2523;51.058;6.922;2023-04-01T08:10:26;10.00;99.90
5009;DHT22;2523;51.058;6.922;2023-04-01T08:19:38;10.00;99.90
5009;DHT22;2523;51.058;6.922;2023-04-01T08:21:49;10.00;99.90
5009;DHT22;2523;51.058;6.922;2023-04-01T08:24:33;9.90;99.90
5009;DHT22;2523;51.058;6.922;2023-04-01T08:27:03;9.90;99.90
5009;DHT22;2523;51.058;6.922;2023-04-01T08:29:41;9.90;99.90
5009;DHT22;2523;51.058;6.922;2023-04-01T08:34:45;9.90;99.90
5009;DHT22;2523;51.058;6.922;2023-04-01T08:37:16;9.90;99.90
5009;DHT22;2523;51.058;6.922;2023-04-01T08:39:57;9.90;99.90
5009;DHT22;2523;51.058;6.922;2023-04-01T08:48:27;10.00;99.90
5009;DHT22;2523;51.058;6.922;2023-04-01T08:56:41;10.10;99.90
5009;DHT22;2523;51.058;6.922;2023-04-01T08:59:32;10.10;99.90
5009;DHT22;2523;51.058;6.922;2023-04-01T09:11:05;10.10;99.90
5009;DHT22;2523;51.058;6.922;2023-04-01T09:27:27;10.20;99.90
5009;DHT22;2523;51.058;6.922;2023-04-01T09:35:50;10.30;99.90
5009;DHT22;2523;51.058;6.922;2023-04-01T09:38:29;10.30;99.90
5009;DHT22;2523;51.058;6.922;2023-04-01T09:49:54;10.40;99.90
5009;DHT22;2523;51.058;6.922;2023-04-01T09:52:26;10.40;99.90
5009;DHT22;2523;51.058;6.922;2023-04-01T10:15:18;10.40;99.90
5009;DHT22;2523;51.058;6.922;2023-04-01T10:23:25;10.50;99.90
5009;DHT22;2523;51.058;6.922;2023-04-01T10:36:57;10.40;99.90
5009;DHT22;2523;51.058;6.922;2023-04-01T10:39:37;10.50;99.90
5009;DHT22;2523;51.058;6.922;2023-04-01T10:48:21;10.50;99.90
5009;DHT22;2523;51.058;6.922;2023-04-01T10:51:22;10.50;99.90
5009;DHT22;2523;51.058;6.922;2023-04-01T10:56:34;10.40;99.90
5009;DHT22;2523;51.058;6.922;2023-04-01T11:04:47;10.50;99.90
5009;DHT22;2523;51.058;6.922;2023-04-01T11:07:22;10.50;99.90
5009;DHT22;2523;51.058;6.922;2023-04-01T11:13:27;10.50;99.90
5009;DHT22;2523;51.058;6.922;2023-04-01T11:19:09;10.60;99.90
5009;DHT22;2523;51.058;6.922;2023-04-01T11:22:15;10.70;99.90
5009;DHT22;2523;51.058;6.922;2023-04-01T11:25:11;10.80;99.90
5009;DHT22;2523;51.058;6.922;2023-04-01T11:31:03;10.90;99.90
5009;DHT22;2523;51.058;6.922;2023-04-01T11:36:56;11.00;99.90
5009;DHT22;2523;51.058;6.922;2023-04-01T11:39:37;11.00;99.90
5009;DHT22;2523;51.058;6.922;2023-04-01T11:42:34;11.00;99.90
5009;DHT22;2523;51.058;6.922;2023-04-01T11:53:47;11.20;99.90
5009;DHT22;2523;51.058;6.922;2023-04-01T12:04:41;11.50;99.90
5009;DHT22;2523;51.058;6.922;2023-04-01T12:12:41;11.40;99.90
5009;DHT22;2523;51.058;6.922;2023-04-01T12:18:18;11.40;99.90
5009;DHT22;2523;51.058;6.922;2023-04-01T12:27:06;11.50;99.90
5009;DHT22;2523;51.058;6.922;2023-04-01T12:29:52;11.60;99.90
5009;DHT22;2523;51.058;6.922;2023-04-01T12:32:34;11.60;99.90
5009;DHT22;2523;51.058;6.922;2023-04-01T12:38:22;11.40;99.90
5009;DHT22;2523;51.058;6.922;2023-04-01T12:41:08;11.40;99.90
5009;DHT22;2523;51.058;6.922;2023-04-01T12:43:57;11.40;99.90
5009;DHT22;2523;51.058;6.922;2023-04-01T12:46:38;11.40;99.90
5009;DHT22;2523;51.058;6.922;2023-04-01T12:49:13;11.40;99.90
5009;DHT22;2523;51.058;6.922;2023-04-01T12:52:13;11.30;99.90
5009;DHT22;2523;51.058;6.922;2023-04-01T12:57:32;11.30;99.90
5009;DHT22;2523;51.058;6.922;2023-04-01T13:00:27;11.30;99.90
5009;DHT22;2523;51.058;6.922;2023-04-01T13:11:39;11.20;99.90
5009;DHT22;2523;51.058;6.922;2023-04-01T13:14:42;11.20;99.90
5009;DHT22;2523;51.058;6.922;2023-04-01T13:17:26;11.10;99.90
5009;DHT22;2523;51.058;6.922;2023-04-01T13:20:02;11.10;99.90
5009;DHT22;2523;51.058;6.922;2023-04-01T13:22:48;11.10;99.90
5009;DHT22;2523;51.058;6.922;2023-04-01T13:25:23;11.10;99.90
5009;DHT22;2523;51.058;6.922;2023-04-01T13:28:01;11.10;99.90
5009;DHT22;2523;51.058;6.922;2023-04-01T13:30:51;11.10;99.90
5009;DHT22;2523;51.058;6.922;2023-04-01T13:33:35;11.10;99.90
5009;DHT22;2523;51.058;6.922;2023-04-01T13:36:12;11.00;99.90
5009;DHT22;2523;51.058;6.922;2023-04-01T13:44:02;11.00;99.90
5009;DHT22;2523;51.058;6.922;2023-04-01T14:00:43;11.10;99.90
5009;DHT22;2523;51.058;6.922;2023-04-01T14:03:20;11.20;99.90
5009;DHT22;2523;51.058;6.922;2023-04-01T14:17:47;11.30;99.90
5009;DHT22;2523;51.058;6.922;2023-04-01T14:20:39;11.20;99.90
5009;DHT22;2523;51.058;6.922;2023-04-01T14:37:41;11.10;99.90
5009;DHT22;2523;51.058;6.922;2023-04-01T14:40:22;11.10;99.90
5009;DHT22;2523;51.058;6.922;2023-04-01T14:43:03;11.10;99.90
5009;DHT22;2523;51.058;6.922;2023-04-01T14:50:54;10.90;99.90
5009;DHT22;2523;51.058;6.922;2023-04-01T14:55:50;11.00;99.90
5009;DHT22;2523;51.058;6.922;2023-04-01T14:58:18;11.00;99.90
5009;DHT22;2523;51.058;6.922;2023-04-01T15:04:06;10.90;99.90
5009;DHT22;2523;51.058;6.922;2023-04-01T15:09:18;10.90;99.90
5009;DHT22;2523;51.058;6.922;2023-04-01T15:15:00;10.90;99.90
5009;DHT22;2523;51.058;6.922;2023-04-01T15:20:30;10.90;99.90
5009;DHT22;2523;51.058;6.922;2023-04-01T15:23:06;10.90;99.90
5009;DHT22;2523;51.058;6.922;2023-04-01T15:26:04;10.90;99.90
5009;DHT22;2523;51.058;6.922;2023-04-01T15:28:55;11.00;99.90
5009;DHT22;2523;51.058;6.922;2023-04-01T15:31:31;11.00;99.90
5009;DHT22;2523;51.058;6.922;2023-04-01T15:37:04;11.10;99.90
5009;DHT22;2523;51.058;6.922;2023-04-01T15:39:45;11.00;99.90
5009;DHT22;2523;51.058;6.922;2023-04-01T15:45:56;11.10;99.90
5009;DHT22;2523;51.058;6.922;2023-04-01T15:51:36;11.00;99.90
5009;DHT22;2523;51.058;6.922;2023-04-01T15:54:23;11.00;99.90
5009;DHT22;2523;51.058;6.922;2023-04-01T16:02:34;11.10;99.90
5009;DHT22;2523;51.058;6.922;2023-04-01T16:05:13;11.10;99.90
5009;DHT22;2523;51.058;6.922;2023-04-01T16:11:25;11.10;99.90
5009;DHT22;2523;51.058;6.922;2023-04-01T16:17:04;11.00;99.90
5009;DHT22;2523;51.058;6.922;2023-04-01T16:19:52;11.00;99.90
5009;DHT22;2523;51.058;6.922;2023-04-01T16:22:31;11.00;99.90
5009;DHT22;2523;51.058;6.922;2023-04-01T16:31:05;10.90;99.90
5009;DHT22;2523;51.058;6.922;2023-04-01T16:36:49;10.80;99.90
5009;DHT22;2523;51.058;6.922;2023-04-01T16:39:26;10.70;99.90
5009;DHT22;2523;51.058;6.922;2023-04-01T16:42:16;10.70;99.90
5009;DHT22;2523;51.058;6.922;2023-04-01T16:44:53;10.60;99.90
5009;DHT22;2523;51.058;6.922;2023-04-01T16:47:40;10.60;99.90
5009;DHT22;2523;51.058;6.922;2023-04-01T16:50:28;10.60;99.90
5009;DHT22;2523;51.058;6.922;2023-04-01T16:56:21;10.50;99.90
5009;DHT22;2523;51.058;6.922;2023-04-01T16:58:39;10.50;99.90
5009;DHT22;2523;51.058;6.922;2023-04-01T17:01:12;10.50;99.90
5009;DHT22;2523;51.058;6.922;2023-04-01T17:03:43;10.50;99.90
5009;DHT22;2523;51.058;6.922;2023-04-01T17:06:45;10.50;99.90
5009;DHT22;2523;51.058;6.922;2023-04-01T17:12:29;10.50;99.90
5009;DHT22;2523;51.058;6.922;2023-04-01T17:25:52;10.40;99.90
5009;DHT22;2523;51.058;6.922;2023-04-01T17:28:46;10.30;99.90
5009;DHT22;2523;51.058;6.922;2023-04-01T17:31:33;10.30;99.90
5009;DHT22;2523;51.058;6.922;2023-04-01T17:42:34;10.40;99.90
5009;DHT22;2523;51.058;6.922;2023-04-01T17:51:08;10.30;99.90
5009;DHT22;2523;51.058;6.922;2023-04-01T17:59:36;10.20;99.90
5009;DHT22;2523;51.058;6.922;2023-04-01T18:02:22;10.20;99.90
5009;DHT22;2523;51.058;6.922;2023-04-01T18:05:21;10.20;99.90
5009;DHT22;2523;51.058;6.922;2023-04-01T18:19:48;10.10;99.90
5009;DHT22;2523;51.058;6.922;2023-04-01T18:22:36;10.10;99.90
5009;DHT22;2523;51.058;6.922;2023-04-01T18:25:44;10.10;99.90
5009;DHT22;2523;51.058;6.922;2023-04-01T18:28:35;10.00;99.90
5009;DHT22;2523;51.058;6.922;2023-04-01T18:42:16;9.90;99.90
5009;DHT22;2523;51.058;6.922;2023-04-01T18:44:57;10.00;99.90
5009;DHT22;2523;51.058;6.922;2023-04-01T18:50:28;9.90;99.90
5009;DHT22;2523;51.058;6.922;2023-04-01T18:55:41;9.90;99.90
5009;DHT22;2523;51.058;6.922;2023-04-01T19:06:35;9.90;99.90
5009;DHT22;2523;51.058;6.922;2023-04-01T19:09:19;9.80;99.90
5009;DHT22;2523;51.058;6.922;2023-04-01T19:14:56;9.80;99.90
5009;DHT22;2523;51.058;6.922;2023-04-01T19:20:14;9.80;99.90
5009;DHT22;2523;51.058;6.922;2023-04-01T19:29:06;9.80;99.90
5009;DHT22;2523;51.058;6.922;2023-04-01T19:31:41;9.80;99.90
5009;DHT22;2523;51.058;6.922;2023-04-01T19:39:59;9.80;99.90
5009;DHT22;2523;51.058;6.922;2023-04-01T19:42:56;9.70;99.90
5009;DHT22;2523;51.058;6.922;2023-04-01T19:50:57;9.70;99.90
5009;DHT22;2523;51.058;6.922;2023-04-01T19:53:51;9.70;99.90
5009;DHT22;2523;51.058;6.922;2023-04-01T19:56:24;9.70;99.90
5009;DHT22;2523;51.058;6.922;2023-04-01T19:59:10;9.70;99.90
5009;DHT22;2523;51.058;6.922;2023-04-01T20:04:32;9.70;99.90
5009;DHT22;2523;51.058;6.922;2023-04-01T20:07:09;9.70;99.90
5009;DHT22;2523;51.058;6.922;2023-04-01T20:09:58;9.70;99.90
5009;DHT22;2523;51.058;6.922;2023-04-01T20:15:47;9.70;99.90
5009;DHT22;2523;51.058;6.922;2023-04-01T20:18:36;9.60;99.90
5009;DHT22;2523;51.058;6.922;2023-04-01T20:21:15;9.60;99.90
5009;DHT22;2523;51.058;6.922;2023-04-01T20:26:50;9.60;99.90
5009;DHT22;2523;51.058;6.922;2023-04-01T20:34:36;9.60;99.90
5009;DHT22;2523;51.058;6.922;2023-04-01T20:37:17;9.60;99.90
5009;DHT22;2523;51.058;6.922;2023-04-01T20:51:22;9.50;99.90
5009;DHT22;2523;51.058;6.922;2023-04-01T20:57:11;9.50;99.90
5009;DHT22;2523;51.058;6.922;2023-04-01T21:02:49;9.50;99.90
5009;DHT22;2523;51.058;6.922;2023-04-01T21:05:55;9.50;99.90
5009;DHT22;2523;51.058;6.922;2023-04-01T21:11:28;9.50;99.90
5009;DHT22;2523;51.058;6.922;2023-04-01T21:17:08;9.50;99.90
5009;DHT22;2523;51.058;6.922;2023-04-01T21:19:55;9.50;99.90
5009;DHT22;2523;51.058;6.922;2023-04-01T21:30:58;9.50;99.90
5009;DHT22;2523;51.058;6.922;2023-04-01T21:33:43;9.50;99.90
5009;DHT22;2523;51.058;6.922;2023-04-01T21:44:41;9.50;99.90
5009;DHT22;2523;51.058;6.922;2023-04-01T22:06:42;9.70;99.90
5009;DHT22;2523;51.058;6.922;2023-04-01T22:09:17;9.70;99.90
5009;DHT22;2523;51.058;6.922;2023-04-01T22:12:09;9.70;99.90
5009;DHT22;2523;51.058;6.922;2023-04-01T22:14:55;9.70;99.90
5009;DHT22;2523;51.058;6.922;2023-04-01T22:25:42;9.70;99.90
5009;DHT22;2523;51.058;6.922;2023-04-01T22:28:24;9.80;99.90
5009;DHT22;2523;51.058;6.922;2023-04-01T22:30:58;9.70;99.90
5009;DHT22;2523;51.058;6.922;2023-04-01T22:36:50;9.70;99.90
5009;DHT22;2523;51.058;6.922;2023-04-01T22:45:17;9.70;99.90
5009;DHT22;2523;51.058;6.922;2023-04-01T22:48:01;9.70;99.90
5009;DHT22;2523;51.058;6.922;2023-04-01T22:50:55;9.70;99.90
5009;DHT22;2523;51.058;6.922;2023-04-01T22:56:18;9.70;99.90
5009;DHT22;2523;51.058;6.922;2023-04-01T23:01:28;9.60;99.90
5009;DHT22;2523;51.058;6.922;2023-04-01T23:03:56;9.60;99.90
5009;DHT22;2523;51.058;6.922;2023-04-01T23:06:29;9.60;99.90
5009;DHT22;2523;51.058;6.922;2023-04-01T23:09:08;9.60;99.90
5009;DHT22;2523;51.058;6.922;2023-04-01T23:14:15;9.60;99.90
5009;DHT22;2523;51.058;6.922;2023-04-01T23:17:23;9.60;99.90
5009;DHT22;2523;51.058;6.922;2023-04-01T23:22:29;9.60;99.90
5009;DHT22;2523;51.058;6.922;2023-04-01T23:25:23;9.60;99.90
5009;DHT22;2523;51.058;6.922;2023-04-01T23:27:59;9.60;99.90
5009;DHT22;2523;51.058;6.922;2023-04-01T23:35:48;9.60;99.90
5009;DHT22;2523;51.058;6.922;2023-04-01T23:38:15;9.70;99.90
5009;DHT22;2523;51.058;6.922;2023-04-01T23:40:41;9.70;99.90
5009;DHT22;2523;51.058;6.922;2023-04-01T23:43:14;9.70;99.90
5009;DHT22;2523;51.058;6.922;2023-04-01T23:45:42;9.70;99.90
5009;DHT22;2523;51.058;6.922;2023-04-01T23:48:12;9.70;99.90
5009;DHT22;2523;51.058;6.922;2023-04-01T23:50:40;9.70;99.90
5009;DHT22;2523;51.058;6.922;2023-04-01T23:53:24;9.70;99.90
5009;DHT22;2523;51.058;6.922;2023-04-01T23:55:51;9.70;99.90
5009;DHT22;2523;51.058;6.922;2023-04-01T23:58:26;9.70;99.90
